sensor_id;sensor_type;location;lat;lon;timestamp;pressure;altitude;pressure_sealevel;temperature;humidity
85376;BME280;75780;43.986;22.860;2024-01-30T00:00:59;103875.16;;;0.30;79.94
85376;BME280;75780;43.986;22.860;2024-01-30T00:03:24;103865.63;;;0.28;79.71
85376;BME280;75780;43.986;22.860;2024-01-30T00:05:50;103850.88;;;0.24;79.28
85376;BME280;75780;43.986;22.860;2024-01-30T00:08:15;103917.06;;;0.67;79.12
85376;BME280;75780;43.986;22.860;2024-01-30T00:10:41;103883.72;;;0.42;79.11
85376;BME280;75780;43.986;22.860;2024-01-30T00:13:06;103907.63;;;0.66;79.53
85376;BME280;75780;43.986;22.860;2024-01-30T00:15:32;103809.50;;;0.05;80.10
85376;BME280;75780;43.986;22.860;2024-01-30T00:17:57;103906.06;;;0.68;79.88
85376;BME280;75780;43.986;22.860;2024-01-30T00:20:23;103862.84;;;0.36;79.75
85376;BME280;75780;43.986;22.860;2024-01-30T00:22:48;103884.22;;;0.60;79.28
85376;BME280;75780;43.986;22.860;2024-01-30T00:25:14;103930.16;;;0.83;79.48
85376;BME280;75780;43.986;22.860;2024-01-30T00:27:40;103915.84;;;0.74;80.17
85376;BME280;75780;43.986;22.860;2024-01-30T00:30:05;103871.31;;;0.47;80.07
85376;BME280;75780;43.986;22.860;2024-01-30T00:32:32;103910.16;;;0.66;79.79
85376;BME280;75780;43.986;22.860;2024-01-30T00:34:57;103857.09;;;0.39;79.55
85376;BME280;75780;43.986;22.860;2024-01-30T00:37:23;103921.19;;;0.77;80.10
85376;BME280;75780;43.986;22.860;2024-01-30T00:39:48;103908.28;;;0.87;79.72
85376;BME280;75780;43.986;22.860;2024-01-30T00:42:14;103861.13;;;0.58;79.67
85376;BME280;75780;43.986;22.860;2024-01-30T00:44:40;103858.88;;;0.40;79.80
85376;BME280;75780;43.986;22.860;2024-01-30T00:47:06;103839.78;;;0.23;80.08
85376;BME280;75780;43.986;22.860;2024-01-30T00:49:31;103861.53;;;0.41;80.17
85376;BME280;75780;43.986;22.860;2024-01-30T00:51:56;103850.09;;;0.36;79.37
85376;BME280;75780;43.986;22.860;2024-01-30T00:54:22;103861.09;;;0.35;79.97
85376;BME280;75780;43.986;22.860;2024-01-30T00:56:47;103895.41;;;0.50;80.68
85376;BME280;75780;43.986;22.860;2024-01-30T00:59:13;103900.59;;;0.52;80.48
85376;BME280;75780;43.986;22.860;2024-01-30T01:01:38;103854.44;;;0.26;80.75
85376;BME280;75780;43.986;22.860;2024-01-30T01:04:04;103922.25;;;0.57;80.79
85376;BME280;75780;43.986;22.860;2024-01-30T01:06:29;103921.47;;;0.58;80.58
85376;BME280;75780;43.986;22.860;2024-01-30T01:08:55;103923.69;;;0.65;80.34
85376;BME280;75780;43.986;22.860;2024-01-30T01:11:20;103858.88;;;0.28;80.83
85376;BME280;75780;43.986;22.860;2024-01-30T01:13:46;103895.69;;;0.32;80.17
85376;BME280;75780;43.986;22.860;2024-01-30T01:16:11;103897.75;;;0.14;79.78
85376;BME280;75780;43.986;22.860;2024-01-30T01:18:37;103917.97;;;0.01;80.79
85376;BME280;75780;43.986;22.860;2024-01-30T01:21:02;103856.56;;;-0.35;80.26
85376;BME280;75780;43.986;22.860;2024-01-30T01:23:28;103867.34;;;-0.28;80.79
85376;BME280;75780;43.986;22.860;2024-01-30T01:25:53;103848.00;;;-0.36;80.25
85376;BME280;75780;43.986;22.860;2024-01-30T01:28:20;103913.88;;;0.03;79.67
85376;BME280;75780;43.986;22.860;2024-01-30T01:30:45;103836.13;;;-0.47;80.55
85376;BME280;75780;43.986;22.860;2024-01-30T01:33:11;103884.88;;;-0.21;80.99
85376;BME280;75780;43.986;22.860;2024-01-30T01:35:39;103882.28;;;-0.32;81.39
85376;BME280;75780;43.986;22.860;2024-01-30T01:38:05;103897.66;;;-0.09;80.78
85376;BME280;75780;43.986;22.860;2024-01-30T01:40:30;103881.25;;;-0.13;80.35
85376;BME280;75780;43.986;22.860;2024-01-30T01:42:56;103907.44;;;-0.04;80.12
85376;BME280;75780;43.986;22.860;2024-01-30T01:45:22;103885.88;;;-0.19;80.33
85376;BME280;75780;43.986;22.860;2024-01-30T01:47:50;103857.00;;;-0.41;80.07
85376;BME280;75780;43.986;22.860;2024-01-30T01:50:16;103926.66;;;-0.19;80.63
85376;BME280;75780;43.986;22.860;2024-01-30T01:52:50;103924.81;;;-0.53;82.44
85376;BME280;75780;43.986;22.860;2024-01-30T01:55:16;103860.16;;;-0.87;81.72
85376;BME280;75780;43.986;22.860;2024-01-30T01:57:44;103895.38;;;-0.49;81.57
85376;BME280;75780;43.986;22.860;2024-01-30T02:00:10;103927.78;;;-0.37;81.06
85376;BME280;75780;43.986;22.860;2024-01-30T02:02:38;103913.50;;;-0.35;81.03
85376;BME280;75780;43.986;22.860;2024-01-30T02:05:04;103858.69;;;-0.73;81.13
85376;BME280;75780;43.986;22.860;2024-01-30T02:07:30;103883.53;;;-0.49;80.49
85376;BME280;75780;43.986;22.860;2024-01-30T02:09:56;103919.00;;;-0.19;79.76
85376;BME280;75780;43.986;22.860;2024-01-30T02:12:21;103840.97;;;-0.72;80.97
85376;BME280;75780;43.986;22.860;2024-01-30T02:14:48;103927.94;;;-0.24;80.31
85376;BME280;75780;43.986;22.860;2024-01-30T02:17:14;103852.53;;;-0.65;81.02
85376;BME280;75780;43.986;22.860;2024-01-30T02:19:40;103849.97;;;-0.87;80.93
85376;BME280;75780;43.986;22.860;2024-01-30T02:22:06;103846.19;;;-0.92;81.33
85376;BME280;75780;43.986;22.860;2024-01-30T02:24:32;103858.38;;;-0.88;81.83
85376;BME280;75780;43.986;22.860;2024-01-30T02:26:57;103795.69;;;-1.29;81.95
85376;BME280;75780;43.986;22.860;2024-01-30T02:29:23;103861.75;;;-0.99;80.93
85376;BME280;75780;43.986;22.860;2024-01-30T02:31:48;103914.81;;;-0.72;82.54
85376;BME280;75780;43.986;22.860;2024-01-30T02:34:14;103854.75;;;-1.01;81.46
85376;BME280;75780;43.986;22.860;2024-01-30T02:36:44;103921.72;;;-0.81;82.36
85376;BME280;75780;43.986;22.860;2024-01-30T02:39:09;103915.88;;;-0.80;82.17
85376;BME280;75780;43.986;22.860;2024-01-30T02:41:35;103907.09;;;-0.83;81.59
85376;BME280;75780;43.986;22.860;2024-01-30T02:44:02;103932.56;;;-0.83;81.70
85376;BME280;75780;43.986;22.860;2024-01-30T02:46:27;103879.59;;;-1.19;81.71
85376;BME280;75780;43.986;22.860;2024-01-30T02:48:53;103858.16;;;-1.32;81.67
85376;BME280;75780;43.986;22.860;2024-01-30T02:51:18;103862.63;;;-1.50;82.55
85376;BME280;75780;43.986;22.860;2024-01-30T02:53:44;103891.38;;;-1.81;84.55
85376;BME280;75780;43.986;22.860;2024-01-30T02:56:09;103939.31;;;-1.66;86.50
85376;BME280;75780;43.986;22.860;2024-01-30T02:58:38;103916.28;;;-1.67;85.93
85376;BME280;75780;43.986;22.860;2024-01-30T03:01:04;103869.41;;;-1.91;85.30
85376;BME280;75780;43.986;22.860;2024-01-30T03:03:29;103871.56;;;-1.85;83.89
85376;BME280;75780;43.986;22.860;2024-01-30T03:05:55;103840.53;;;-2.02;83.39
85376;BME280;75780;43.986;22.860;2024-01-30T03:08:20;103877.53;;;-1.95;83.63
85376;BME280;75780;43.986;22.860;2024-01-30T03:10:46;103863.03;;;-1.96;83.27
85376;BME280;75780;43.986;22.860;2024-01-30T03:13:11;103850.56;;;-2.13;83.19
85376;BME280;75780;43.986;22.860;2024-01-30T03:15:37;103906.13;;;-1.77;83.01
85376;BME280;75780;43.986;22.860;2024-01-30T03:18:03;103862.00;;;-2.18;82.94
85376;BME280;75780;43.986;22.860;2024-01-30T03:20:31;103856.69;;;-2.21;83.31
85376;BME280;75780;43.986;22.860;2024-01-30T03:22:59;103863.16;;;-2.25;83.69
85376;BME280;75780;43.986;22.860;2024-01-30T03:25:24;103868.34;;;-2.13;83.39
85376;BME280;75780;43.986;22.860;2024-01-30T03:27:50;103861.59;;;-2.43;84.63
85376;BME280;75780;43.986;22.860;2024-01-30T03:30:15;103861.97;;;-2.48;85.23
85376;BME280;75780;43.986;22.860;2024-01-30T03:32:42;103875.50;;;-2.09;84.90
85376;BME280;75780;43.986;22.860;2024-01-30T03:35:08;103919.34;;;-1.71;84.23
85376;BME280;75780;43.986;22.860;2024-01-30T03:37:33;103920.38;;;-1.69;84.39
85376;BME280;75780;43.986;22.860;2024-01-30T03:39:59;103924.94;;;-1.85;84.45
85376;BME280;75780;43.986;22.860;2024-01-30T03:42:24;103814.72;;;-2.56;84.67
85376;BME280;75780;43.986;22.860;2024-01-30T03:44:50;103923.69;;;-1.80;84.89
85376;BME280;75780;43.986;22.860;2024-01-30T03:47:21;103904.88;;;-1.82;84.77
85376;BME280;75780;43.986;22.860;2024-01-30T03:49:47;103926.47;;;-1.67;84.46
85376;BME280;75780;43.986;22.860;2024-01-30T03:52:12;103861.13;;;-2.09;84.15
85376;BME280;75780;43.986;22.860;2024-01-30T03:54:38;103916.41;;;-1.96;84.08
85376;BME280;75780;43.986;22.860;2024-01-30T03:57:03;103943.56;;;-2.15;84.89
85376;BME280;75780;43.986;22.860;2024-01-30T03:59:29;103828.13;;;-2.78;85.10
85376;BME280;75780;43.986;22.860;2024-01-30T04:01:55;103931.16;;;-2.02;84.85
85376;BME280;75780;43.986;22.860;2024-01-30T04:04:20;103916.81;;;-1.81;83.73
85376;BME280;75780;43.986;22.860;2024-01-30T04:06:46;103913.25;;;-1.63;82.25
85376;BME280;75780;43.986;22.860;2024-01-30T04:09:13;103875.97;;;-2.33;83.67
85376;BME280;75780;43.986;22.860;2024-01-30T04:11:41;103925.31;;;-1.81;83.18
85376;BME280;75780;43.986;22.860;2024-01-30T04:14:07;103927.88;;;-1.81;82.37
85376;BME280;75780;43.986;22.860;2024-01-30T04:16:32;103906.75;;;-1.70;82.69
85376;BME280;75780;43.986;22.860;2024-01-30T04:18:58;103906.13;;;-1.57;82.00
85376;BME280;75780;43.986;22.860;2024-01-30T04:21:23;103909.81;;;-1.64;81.06
85376;BME280;75780;43.986;22.860;2024-01-30T04:23:50;103923.00;;;-1.98;82.17
85376;BME280;75780;43.986;22.860;2024-01-30T04:26:16;103930.38;;;-1.91;82.86
85376;BME280;75780;43.986;22.860;2024-01-30T04:28:43;103914.28;;;-1.71;82.18
85376;BME280;75780;43.986;22.860;2024-01-30T04:31:09;103858.59;;;-1.98;81.91
85376;BME280;75780;43.986;22.860;2024-01-30T04:33:34;103930.16;;;-1.64;81.44
85376;BME280;75780;43.986;22.860;2024-01-30T04:36:00;103855.94;;;-1.90;81.34
85376;BME280;75780;43.986;22.860;2024-01-30T04:38:26;103853.38;;;-1.80;81.74
85376;BME280;75780;43.986;22.860;2024-01-30T04:40:51;103904.84;;;-1.72;81.56
85376;BME280;75780;43.986;22.860;2024-01-30T04:43:16;103921.13;;;-1.80;82.46
85376;BME280;75780;43.986;22.860;2024-01-30T04:45:42;103875.47;;;-1.99;82.70
85376;BME280;75780;43.986;22.860;2024-01-30T04:48:07;103882.88;;;-1.82;81.66
85376;BME280;75780;43.986;22.860;2024-01-30T04:50:33;103922.53;;;-1.54;82.11
85376;BME280;75780;43.986;22.860;2024-01-30T04:52:58;103928.09;;;-1.38;81.86
85376;BME280;75780;43.986;22.860;2024-01-30T04:55:24;103888.97;;;-1.60;82.61
85376;BME280;75780;43.986;22.860;2024-01-30T04:57:49;103882.88;;;-1.52;81.07
85376;BME280;75780;43.986;22.860;2024-01-30T05:00:15;103916.94;;;-1.40;80.85
85376;BME280;75780;43.986;22.860;2024-01-30T05:02:41;103920.88;;;-1.63;82.45
85376;BME280;75780;43.986;22.860;2024-01-30T05:05:06;103873.72;;;-1.70;81.44
85376;BME280;75780;43.986;22.860;2024-01-30T05:07:33;103815.13;;;-1.91;80.81
85376;BME280;75780;43.986;22.860;2024-01-30T05:09:58;103816.81;;;-2.12;81.36
85376;BME280;75780;43.986;22.860;2024-01-30T05:12:24;103867.72;;;-1.70;81.09
85376;BME280;75780;43.986;22.860;2024-01-30T05:14:49;103934.25;;;-1.66;82.48
85376;BME280;75780;43.986;22.860;2024-01-30T05:17:15;103929.50;;;-1.81;82.80
85376;BME280;75780;43.986;22.860;2024-01-30T05:19:40;103869.63;;;-2.28;83.49
85376;BME280;75780;43.986;22.860;2024-01-30T05:22:06;103927.69;;;-2.13;84.29
85376;BME280;75780;43.986;22.860;2024-01-30T05:24:31;103922.66;;;-1.82;83.08
85376;BME280;75780;43.986;22.860;2024-01-30T05:26:57;103872.56;;;-2.24;83.27
85376;BME280;75780;43.986;22.860;2024-01-30T05:29:22;103867.78;;;-2.49;84.46
85376;BME280;75780;43.986;22.860;2024-01-30T05:31:48;103915.84;;;-2.22;84.37
85376;BME280;75780;43.986;22.860;2024-01-30T05:34:14;103880.22;;;-2.62;84.79
85376;BME280;75780;43.986;22.860;2024-01-30T05:36:39;103874.34;;;-2.72;85.66
85376;BME280;75780;43.986;22.860;2024-01-30T05:39:05;103950.16;;;-2.17;84.01
85376;BME280;75780;43.986;22.860;2024-01-30T05:41:30;103945.69;;;-2.30;84.49
85376;BME280;75780;43.986;22.860;2024-01-30T05:43:55;103883.25;;;-2.66;84.73
85376;BME280;75780;43.986;22.860;2024-01-30T05:46:21;103958.06;;;-2.14;84.41
85376;BME280;75780;43.986;22.860;2024-01-30T05:48:47;103878.72;;;-2.50;83.84
85376;BME280;75780;43.986;22.860;2024-01-30T05:51:12;103956.50;;;-2.22;84.71
85376;BME280;75780;43.986;22.860;2024-01-30T05:53:38;103890.28;;;-2.83;85.06
85376;BME280;75780;43.986;22.860;2024-01-30T05:56:04;103969.09;;;-2.52;85.51
85376;BME280;75780;43.986;22.860;2024-01-30T05:58:30;103941.84;;;-2.74;86.12
85376;BME280;75780;43.986;22.860;2024-01-30T06:00:56;103942.66;;;-2.64;85.79
85376;BME280;75780;43.986;22.860;2024-01-30T06:03:24;103891.50;;;-2.88;85.53
85376;BME280;75780;43.986;22.860;2024-01-30T06:05:49;103905.94;;;-2.97;85.41
85376;BME280;75780;43.986;22.860;2024-01-30T06:08:15;103899.75;;;-2.90;85.14
85376;BME280;75780;43.986;22.860;2024-01-30T06:10:40;103905.50;;;-2.83;84.45
85376;BME280;75780;43.986;22.860;2024-01-30T06:13:06;103943.34;;;-2.47;83.90
85376;BME280;75780;43.986;22.860;2024-01-30T06:15:31;103908.19;;;-2.71;83.33
85376;BME280;75780;43.986;22.860;2024-01-30T06:17:58;103957.09;;;-2.63;84.06
85376;BME280;75780;43.986;22.860;2024-01-30T06:20:23;103887.66;;;-3.21;85.00
85376;BME280;75780;43.986;22.860;2024-01-30T06:22:49;103950.00;;;-2.67;84.28
85376;BME280;75780;43.986;22.860;2024-01-30T06:25:15;103952.88;;;-2.44;83.90
85376;BME280;75780;43.986;22.860;2024-01-30T06:27:42;103950.13;;;-2.27;83.11
85376;BME280;75780;43.986;22.860;2024-01-30T06:30:07;103964.16;;;-2.12;82.89
85376;BME280;75780;43.986;22.860;2024-01-30T06:32:33;103974.09;;;-1.95;81.88
85376;BME280;75780;43.986;22.860;2024-01-30T06:35:00;103978.31;;;-1.85;81.18
85376;BME280;75780;43.986;22.860;2024-01-30T06:37:25;103960.38;;;-1.87;80.98
85376;BME280;75780;43.986;22.860;2024-01-30T06:39:51;103957.47;;;-1.81;80.60
85376;BME280;75780;43.986;22.860;2024-01-30T06:42:17;103930.75;;;-1.96;80.36
85376;BME280;75780;43.986;22.860;2024-01-30T06:44:43;103960.00;;;-1.91;80.85
85376;BME280;75780;43.986;22.860;2024-01-30T06:47:09;103985.50;;;-2.10;81.35
85376;BME280;75780;43.986;22.860;2024-01-30T06:49:34;103995.34;;;-1.94;81.41
85376;BME280;75780;43.986;22.860;2024-01-30T06:52:00;103985.81;;;-1.77;80.93
85376;BME280;75780;43.986;22.860;2024-01-30T06:54:25;103978.19;;;-1.37;79.52
85376;BME280;75780;43.986;22.860;2024-01-30T06:56:51;103961.19;;;-1.48;78.74
85376;BME280;75780;43.986;22.860;2024-01-30T06:59:16;103975.91;;;-1.44;78.77
85376;BME280;75780;43.986;22.860;2024-01-30T07:01:42;103976.06;;;-1.32;78.56
85376;BME280;75780;43.986;22.860;2024-01-30T07:04:07;103929.63;;;-1.70;79.00
85376;BME280;75780;43.986;22.860;2024-01-30T07:06:32;103959.25;;;-1.50;79.19
85376;BME280;75780;43.986;22.860;2024-01-30T07:08:58;103911.59;;;-1.53;78.13
85376;BME280;75780;43.986;22.860;2024-01-30T07:11:23;103919.59;;;-1.48;78.01
85376;BME280;75780;43.986;22.860;2024-01-30T07:13:52;103936.00;;;-1.45;78.51
85376;BME280;75780;43.986;22.860;2024-01-30T07:16:17;103967.47;;;-1.02;78.03
85376;BME280;75780;43.986;22.860;2024-01-30T07:18:43;103973.53;;;-0.80;77.26
85376;BME280;75780;43.986;22.860;2024-01-30T07:21:09;103943.44;;;-0.64;76.42
85376;BME280;75780;43.986;22.860;2024-01-30T07:23:34;103928.84;;;-1.18;77.10
85376;BME280;75780;43.986;22.860;2024-01-30T07:26:01;103970.72;;;-0.73;78.12
85376;BME280;75780;43.986;22.860;2024-01-30T07:28:26;103913.41;;;-1.00;77.30
85376;BME280;75780;43.986;22.860;2024-01-30T07:30:52;103924.72;;;-0.96;78.32
85376;BME280;75780;43.986;22.860;2024-01-30T07:33:17;103974.63;;;-0.67;78.16
85376;BME280;75780;43.986;22.860;2024-01-30T07:35:43;103970.16;;;-0.59;78.44
85376;BME280;75780;43.986;22.860;2024-01-30T07:38:08;103921.66;;;-0.60;77.97
85376;BME280;75780;43.986;22.860;2024-01-30T07:40:34;103974.16;;;-0.19;77.32
85376;BME280;75780;43.986;22.860;2024-01-30T07:42:59;103911.06;;;-0.12;76.58
85376;BME280;75780;43.986;22.860;2024-01-30T07:45:26;103916.16;;;0.22;75.06
85376;BME280;75780;43.986;22.860;2024-01-30T07:47:53;103927.13;;;0.65;74.72
85376;BME280;75780;43.986;22.860;2024-01-30T07:50:18;103970.25;;;1.07;74.21
85376;BME280;75780;43.986;22.860;2024-01-30T07:52:44;103908.94;;;0.84;72.60
85376;BME280;75780;43.986;22.860;2024-01-30T07:55:09;103869.78;;;0.95;73.17
85376;BME280;75780;43.986;22.860;2024-01-30T07:57:35;103918.53;;;0.98;73.69
85376;BME280;75780;43.986;22.860;2024-01-30T08:00:01;103984.00;;;1.09;74.73
85376;BME280;75780;43.986;22.860;2024-01-30T08:02:28;103984.69;;;1.42;73.39
85376;BME280;75780;43.986;22.860;2024-01-30T08:04:53;103978.88;;;1.67;73.79
85376;BME280;75780;43.986;22.860;2024-01-30T08:07:19;103968.81;;;2.18;71.27
85376;BME280;75780;43.986;22.860;2024-01-30T08:09:46;103953.25;;;2.15;71.04
85376;BME280;75780;43.986;22.860;2024-01-30T08:12:11;103957.47;;;2.39;70.85
85376;BME280;75780;43.986;22.860;2024-01-30T08:14:38;103956.00;;;2.43;70.99
85376;BME280;75780;43.986;22.860;2024-01-30T08:17:03;103922.06;;;2.58;69.84
85376;BME280;75780;43.986;22.860;2024-01-30T08:19:29;103911.25;;;2.25;69.71
85376;BME280;75780;43.986;22.860;2024-01-30T08:21:54;103919.63;;;2.22;69.13
85376;BME280;75780;43.986;22.860;2024-01-30T08:24:21;103952.59;;;2.31;69.85
85376;BME280;75780;43.986;22.860;2024-01-30T08:26:46;103970.53;;;2.06;70.19
85376;BME280;75780;43.986;22.860;2024-01-30T08:29:11;103932.69;;;1.89;71.42
85376;BME280;75780;43.986;22.860;2024-01-30T08:31:37;103926.00;;;1.91;71.45
85376;BME280;75780;43.986;22.860;2024-01-30T08:34:02;103931.69;;;1.75;70.59
85376;BME280;75780;43.986;22.860;2024-01-30T08:36:28;103918.03;;;2.62;68.94
85376;BME280;75780;43.986;22.860;2024-01-30T08:38:53;103878.66;;;2.86;67.01
85376;BME280;75780;43.986;22.860;2024-01-30T08:41:19;103967.41;;;3.64;65.89
85376;BME280;75780;43.986;22.860;2024-01-30T08:43:45;103934.00;;;3.36;65.73
85376;BME280;75780;43.986;22.860;2024-01-30T08:46:11;103874.47;;;3.41;64.11
85376;BME280;75780;43.986;22.860;2024-01-30T08:48:36;103960.41;;;4.02;63.67
85376;BME280;75780;43.986;22.860;2024-01-30T08:51:02;103943.22;;;3.74;63.89
85376;BME280;75780;43.986;22.860;2024-01-30T08:53:28;103925.25;;;3.33;65.29
85376;BME280;75780;43.986;22.860;2024-01-30T08:55:53;103974.81;;;3.60;64.37
85376;BME280;75780;43.986;22.860;2024-01-30T08:58:19;103981.00;;;3.76;65.29
85376;BME280;75780;43.986;22.860;2024-01-30T09:00:44;103960.75;;;4.08;63.09
85376;BME280;75780;43.986;22.860;2024-01-30T09:03:10;103962.78;;;4.56;63.18
85376;BME280;75780;43.986;22.860;2024-01-30T09:05:35;103914.88;;;3.85;63.27
85376;BME280;75780;43.986;22.860;2024-01-30T09:08:01;103894.63;;;3.62;63.63
85376;BME280;75780;43.986;22.860;2024-01-30T09:10:26;103919.03;;;3.83;63.19
85376;BME280;75780;43.986;22.860;2024-01-30T09:12:52;103967.25;;;4.17;63.60
85376;BME280;75780;43.986;22.860;2024-01-30T09:15:18;103953.28;;;4.26;62.77
85376;BME280;75780;43.986;22.860;2024-01-30T09:17:44;103966.00;;;4.82;61.61
85376;BME280;75780;43.986;22.860;2024-01-30T09:20:10;103959.78;;;4.78;61.10
85376;BME280;75780;43.986;22.860;2024-01-30T09:22:35;103910.38;;;4.38;62.11
85376;BME280;75780;43.986;22.860;2024-01-30T09:25:01;103968.81;;;4.57;63.31
85376;BME280;75780;43.986;22.860;2024-01-30T09:27:26;103944.63;;;4.83;61.48
85376;BME280;75780;43.986;22.860;2024-01-30T09:29:52;103904.09;;;4.77;59.93
85376;BME280;75780;43.986;22.860;2024-01-30T09:32:17;103904.34;;;4.82;56.37
85376;BME280;75780;43.986;22.860;2024-01-30T09:34:43;103967.88;;;4.99;59.33
85376;BME280;75780;43.986;22.860;2024-01-30T09:37:09;103893.56;;;4.58;60.09
85376;BME280;75780;43.986;22.860;2024-01-30T09:39:35;103897.06;;;4.31;60.92
85376;BME280;75780;43.986;22.860;2024-01-30T09:44:50;103890.31;;;5.06;58.33
85376;BME280;75780;43.986;22.860;2024-01-30T09:47:17;103946.72;;;5.19;58.39
85376;BME280;75780;43.986;22.860;2024-01-30T09:49:43;103881.81;;;4.92;58.82
85376;BME280;75780;43.986;22.860;2024-01-30T09:52:09;103939.25;;;5.23;58.78
85376;BME280;75780;43.986;22.860;2024-01-30T09:54:35;103891.22;;;5.22;58.26
85376;BME280;75780;43.986;22.860;2024-01-30T09:57:01;103877.50;;;5.38;57.75
85376;BME280;75780;43.986;22.860;2024-01-30T09:59:26;103922.25;;;5.56;56.96
85376;BME280;75780;43.986;22.860;2024-01-30T10:01:52;103925.69;;;5.87;56.67
85376;BME280;75780;43.986;22.860;2024-01-30T10:04:18;103864.94;;;5.59;56.32
85376;BME280;75780;43.986;22.860;2024-01-30T10:06:43;103926.47;;;6.02;56.04
85376;BME280;75780;43.986;22.860;2024-01-30T10:09:09;103929.22;;;5.89;54.92
85376;BME280;75780;43.986;22.860;2024-01-30T10:11:35;103923.22;;;5.74;55.38
85376;BME280;75780;43.986;22.860;2024-01-30T10:14:01;103863.47;;;5.80;52.96
85376;BME280;75780;43.986;22.860;2024-01-30T10:16:26;103897.16;;;6.33;52.57
85376;BME280;75780;43.986;22.860;2024-01-30T10:18:52;103809.16;;;5.90;51.77
85376;BME280;75780;43.986;22.860;2024-01-30T10:21:18;103881.19;;;6.73;50.04
85376;BME280;75780;43.986;22.860;2024-01-30T10:23:43;103861.88;;;6.83;48.55
85376;BME280;75780;43.986;22.860;2024-01-30T10:26:10;103854.06;;;6.46;50.07
85376;BME280;75780;43.986;22.860;2024-01-30T10:28:36;103893.41;;;6.26;51.83
85376;BME280;75780;43.986;22.860;2024-01-30T10:31:02;103888.50;;;6.48;51.54
85376;BME280;75780;43.986;22.860;2024-01-30T10:33:31;103877.06;;;6.26;51.45
85376;BME280;75780;43.986;22.860;2024-01-30T10:36:04;103896.53;;;5.72;51.98
85376;BME280;75780;43.986;22.860;2024-01-30T10:38:30;103881.94;;;6.37;50.30
85376;BME280;75780;43.986;22.860;2024-01-30T10:40:57;103885.50;;;6.74;48.91
85376;BME280;75780;43.986;22.860;2024-01-30T10:43:25;103883.28;;;6.47;50.53
85376;BME280;75780;43.986;22.860;2024-01-30T10:45:57;103847.84;;;6.25;50.65
85376;BME280;75780;43.986;22.860;2024-01-30T10:48:26;103811.22;;;5.97;50.07
85376;BME280;75780;43.986;22.860;2024-01-30T10:50:55;103818.66;;;6.08;50.68
85376;BME280;75780;43.986;22.860;2024-01-30T10:53:24;103863.94;;;6.90;49.59
85376;BME280;75780;43.986;22.860;2024-01-30T10:55:52;103855.25;;;7.25;48.30
85376;BME280;75780;43.986;22.860;2024-01-30T10:58:20;103860.63;;;7.29;48.29
85376;BME280;75780;43.986;22.860;2024-01-30T11:00:46;103801.47;;;6.25;48.35
85376;BME280;75780;43.986;22.860;2024-01-30T11:03:12;103856.56;;;6.98;48.72
85376;BME280;75780;43.986;22.860;2024-01-30T11:05:40;103859.25;;;7.36;47.47
85376;BME280;75780;43.986;22.860;2024-01-30T11:08:13;103815.50;;;7.39;47.27
85376;BME280;75780;43.986;22.860;2024-01-30T11:10:48;103830.84;;;7.93;45.55
85376;BME280;75780;43.986;22.860;2024-01-30T11:13:14;103788.94;;;7.41;46.66
85376;BME280;75780;43.986;22.860;2024-01-30T11:15:40;103780.34;;;7.41;45.81
85376;BME280;75780;43.986;22.860;2024-01-30T11:18:05;103780.88;;;6.96;44.84
85376;BME280;75780;43.986;22.860;2024-01-30T11:20:31;103819.47;;;7.50;45.38
85376;BME280;75780;43.986;22.860;2024-01-30T11:22:58;103785.78;;;7.47;44.86
85376;BME280;75780;43.986;22.860;2024-01-30T11:25:24;103818.16;;;7.40;44.44
85376;BME280;75780;43.986;22.860;2024-01-30T11:27:52;103827.00;;;7.46;45.64
85376;BME280;75780;43.986;22.860;2024-01-30T11:35:50;103824.41;;;7.65;43.67
85376;BME280;75780;43.986;22.860;2024-01-30T11:38:15;103765.06;;;7.65;43.31
85376;BME280;75780;43.986;22.860;2024-01-30T11:40:41;103747.41;;;7.35;42.72
85376;BME280;75780;43.986;22.860;2024-01-30T11:43:08;103815.69;;;8.01;43.87
85376;BME280;75780;43.986;22.860;2024-01-30T11:45:35;103826.56;;;8.34;42.00
85376;BME280;75780;43.986;22.860;2024-01-30T11:48:00;103758.63;;;8.16;41.65
85376;BME280;75780;43.986;22.860;2024-01-30T11:50:32;103807.13;;;8.23;41.63
85376;BME280;75780;43.986;22.860;2024-01-30T11:52:59;103747.38;;;7.74;42.48
85376;BME280;75780;43.986;22.860;2024-01-30T11:55:24;103798.53;;;7.63;44.43
85376;BME280;75780;43.986;22.860;2024-01-30T11:57:50;103743.41;;;7.23;45.74
85376;BME280;75780;43.986;22.860;2024-01-30T12:00:17;103800.34;;;7.08;45.47
85376;BME280;75780;43.986;22.860;2024-01-30T12:02:44;103794.06;;;6.66;46.37
85376;BME280;75780;43.986;22.860;2024-01-30T12:05:09;103789.88;;;6.51;48.24
85376;BME280;75780;43.986;22.860;2024-01-30T12:07:36;103777.66;;;6.64;47.47
85376;BME280;75780;43.986;22.860;2024-01-30T12:10:02;103784.97;;;6.92;46.00
85376;BME280;75780;43.986;22.860;2024-01-30T12:12:28;103769.34;;;7.07;45.64
85376;BME280;75780;43.986;22.860;2024-01-30T12:14:55;103734.84;;;6.86;45.73
85376;BME280;75780;43.986;22.860;2024-01-30T12:17:30;103789.09;;;6.89;46.78
85376;BME280;75780;43.986;22.860;2024-01-30T12:22:51;103769.53;;;6.04;47.93
85376;BME280;75780;43.986;22.860;2024-01-30T12:25:20;103715.22;;;5.66;48.01
85376;BME280;75780;43.986;22.860;2024-01-30T12:27:47;103767.53;;;5.98;46.79
85376;BME280;75780;43.986;22.860;2024-01-30T12:30:17;103707.75;;;6.04;46.19
85376;BME280;75780;43.986;22.860;2024-01-30T12:32:44;103741.13;;;6.55;45.44
85376;BME280;75780;43.986;22.860;2024-01-30T12:35:13;103740.03;;;6.68;44.93
85376;BME280;75780;43.986;22.860;2024-01-30T12:37:39;103748.84;;;6.73;45.54
85376;BME280;75780;43.986;22.860;2024-01-30T12:40:06;103701.13;;;7.00;44.29
85376;BME280;75780;43.986;22.860;2024-01-30T12:42:32;103742.88;;;7.89;44.22
85376;BME280;75780;43.986;22.860;2024-01-30T12:44:58;103745.75;;;7.76;43.19
85376;BME280;75780;43.986;22.860;2024-01-30T12:47:24;103693.81;;;7.49;43.02
85376;BME280;75780;43.986;22.860;2024-01-30T12:49:51;103732.91;;;7.98;42.40